sensor_id;sensor_type;location;lat;lon;timestamp;pressure;altitude;pressure_sealevel;temperature;humidity
78839;BME280;68405;47.190;27.558;2024-03-08T00:00:33;100545.45;;;2.92;49.82
78839;BME280;68405;47.190;27.558;2024-03-08T00:03:22;100540.80;;;2.91;50.06
78839;BME280;68405;47.190;27.558;2024-03-08T00:05:51;100538.75;;;2.88;50.06
78839;BME280;68405;47.190;27.558;2024-03-08T00:08:20;100540.44;;;2.85;49.90
78839;BME280;68405;47.190;27.558;2024-03-08T00:10:49;100536.45;;;2.82;50.30
78839;BME280;68405;47.190;27.558;2024-03-08T00:13:19;100528.35;;;2.76;50.35
78839;BME280;68405;47.190;27.558;2024-03-08T00:15:48;100529.01;;;2.72;50.16
78839;BME280;68405;47.190;27.558;2024-03-08T00:18:17;100529.69;;;2.73;50.56
78839;BME280;68405;47.190;27.558;2024-03-08T00:20:46;100524.02;;;2.71;50.32
78839;BME280;68405;47.190;27.558;2024-03-08T00:23:15;100521.42;;;2.68;50.81
78839;BME280;68405;47.190;27.558;2024-03-08T00:25:44;100520.85;;;2.61;50.97
78839;BME280;68405;47.190;27.558;2024-03-08T00:28:13;100516.19;;;2.56;50.85
78839;BME280;68405;47.190;27.558;2024-03-08T00:30:45;100513.82;;;2.61;50.32
78839;BME280;68405;47.190;27.558;2024-03-08T00:33:14;100512.48;;;2.65;50.93
78839;BME280;68405;47.190;27.558;2024-03-08T00:35:43;100511.03;;;2.55;51.36
78839;BME280;68405;47.190;27.558;2024-03-08T00:38:12;100510.84;;;2.54;51.03
78839;BME280;68405;47.190;27.558;2024-03-08T00:40:41;100506.37;;;2.51;51.59
78839;BME280;68405;47.190;27.558;2024-03-08T00:43:11;100504.05;;;2.43;51.68
78839;BME280;68405;47.190;27.558;2024-03-08T00:45:41;100501.44;;;2.38;52.00
78839;BME280;68405;47.190;27.558;2024-03-08T00:48:10;100501.09;;;2.37;51.77
78839;BME280;68405;47.190;27.558;2024-03-08T00:50:39;100498.73;;;2.40;50.99
78839;BME280;68405;47.190;27.558;2024-03-08T00:53:08;100500.98;;;2.42;51.61
78839;BME280;68405;47.190;27.558;2024-03-08T00:55:39;100496.91;;;2.48;51.09
78839;BME280;68405;47.190;27.558;2024-03-08T00:58:08;100496.39;;;2.47;52.04
78839;BME280;68405;47.190;27.558;2024-03-08T01:00:37;100494.66;;;2.46;51.05
78839;BME280;68405;47.190;27.558;2024-03-08T01:03:06;100495.90;;;2.52;51.27
78839;BME280;68405;47.190;27.558;2024-03-08T01:05:35;100494.40;;;2.54;51.03
78839;BME280;68405;47.190;27.558;2024-03-08T01:08:06;100493.52;;;2.54;51.75
78839;BME280;68405;47.190;27.558;2024-03-08T01:10:35;100495.74;;;2.53;51.65
78839;BME280;68405;47.190;27.558;2024-03-08T01:13:05;100494.74;;;2.55;51.08
78839;BME280;68405;47.190;27.558;2024-03-08T01:15:34;100495.64;;;2.60;51.16
78839;BME280;68405;47.190;27.558;2024-03-08T01:18:04;100492.42;;;2.67;51.35
78839;BME280;68405;47.190;27.558;2024-03-08T01:20:33;100491.05;;;2.67;51.08
78839;BME280;68405;47.190;27.558;2024-03-08T01:23:02;100490.73;;;2.71;50.97
78839;BME280;68405;47.190;27.558;2024-03-08T01:25:34;100493.35;;;2.75;50.97
78839;BME280;68405;47.190;27.558;2024-03-08T01:28:03;100487.70;;;2.77;51.05
78839;BME280;68405;47.190;27.558;2024-03-08T01:30:32;100483.59;;;2.78;51.38
78839;BME280;68405;47.190;27.558;2024-03-08T01:33:02;100485.28;;;2.75;51.43
78839;BME280;68405;47.190;27.558;2024-03-08T01:35:32;100487.13;;;2.69;51.78
78839;BME280;68405;47.190;27.558;2024-03-08T01:38:02;100484.73;;;2.70;51.40
78839;BME280;68405;47.190;27.558;2024-03-08T01:40:33;100482.30;;;2.67;51.84
78839;BME280;68405;47.190;27.558;2024-03-08T01:43:17;100482.95;;;2.59;52.34
78839;BME280;68405;47.190;27.558;2024-03-08T01:45:46;100480.19;;;2.58;51.84
78839;BME280;68405;47.190;27.558;2024-03-08T01:48:17;100482.91;;;2.54;52.18
78839;BME280;68405;47.190;27.558;2024-03-08T01:50:47;100481.98;;;2.47;52.24
78839;BME280;68405;47.190;27.558;2024-03-08T01:53:16;100481.08;;;2.42;52.77
78839;BME280;68405;47.190;27.558;2024-03-08T01:55:49;100483.08;;;2.36;52.60
78839;BME280;68405;47.190;27.558;2024-03-08T01:58:18;100483.95;;;2.36;52.40
78839;BME280;68405;47.190;27.558;2024-03-08T02:00:50;100485.12;;;2.33;53.35
78839;BME280;68405;47.190;27.558;2024-03-08T02:03:19;100482.70;;;2.31;52.81
78839;BME280;68405;47.190;27.558;2024-03-08T02:05:49;100483.56;;;2.31;52.12
78839;BME280;68405;47.190;27.558;2024-03-08T02:08:19;100482.42;;;2.36;51.93
78839;BME280;68405;47.190;27.558;2024-03-08T02:10:50;100481.42;;;2.42;52.06
78839;BME280;68405;47.190;27.558;2024-03-08T02:13:19;100481.21;;;2.37;53.24
78839;BME280;68405;47.190;27.558;2024-03-08T02:15:53;100481.01;;;2.34;52.41
78839;BME280;68405;47.190;27.558;2024-03-08T02:18:22;100480.66;;;2.34;52.70
78839;BME280;68405;47.190;27.558;2024-03-08T02:20:52;100477.75;;;2.33;52.56
78839;BME280;68405;47.190;27.558;2024-03-08T02:23:21;100475.84;;;2.31;52.50
78839;BME280;68405;47.190;27.558;2024-03-08T02:25:50;100475.38;;;2.36;52.34
78839;BME280;68405;47.190;27.558;2024-03-08T02:28:20;100473.00;;;2.40;51.94
78839;BME280;68405;47.190;27.558;2024-03-08T02:30:49;100473.39;;;2.44;51.86
78839;BME280;68405;47.190;27.558;2024-03-08T02:33:19;100475.25;;;2.41;52.55
78839;BME280;68405;47.190;27.558;2024-03-08T02:35:49;100476.96;;;2.39;52.30
78839;BME280;68405;47.190;27.558;2024-03-08T02:38:19;100474.06;;;2.42;51.91
78839;BME280;68405;47.190;27.558;2024-03-08T02:40:49;100472.73;;;2.46;52.22
78839;BME280;68405;47.190;27.558;2024-03-08T02:43:20;100473.61;;;2.50;52.21
78839;BME280;68405;47.190;27.558;2024-03-08T02:45:50;100474.81;;;2.50;52.41
78839;BME280;68405;47.190;27.558;2024-03-08T02:48:21;100471.03;;;2.50;51.99
78839;BME280;68405;47.190;27.558;2024-03-08T02:50:50;100472.25;;;2.52;52.54
78839;BME280;68405;47.190;27.558;2024-03-08T02:53:19;100472.44;;;2.34;53.67
78839;BME280;68405;47.190;27.558;2024-03-08T02:55:48;100473.60;;;2.28;53.27
78839;BME280;68405;47.190;27.558;2024-03-08T02:58:17;100473.43;;;2.29;53.05
78839;BME280;68405;47.190;27.558;2024-03-08T03:00:47;100476.70;;;2.30;53.06
78839;BME280;68405;47.190;27.558;2024-03-08T03:03:16;100473.10;;;2.30;52.69
78839;BME280;68405;47.190;27.558;2024-03-08T03:05:45;100468.34;;;2.35;52.51
78839;BME280;68405;47.190;27.558;2024-03-08T03:08:14;100471.80;;;2.39;52.62
78839;BME280;68405;47.190;27.558;2024-03-08T03:10:45;100472.27;;;2.33;53.39
78839;BME280;68405;47.190;27.558;2024-03-08T03:13:14;100472.69;;;2.23;53.75
78839;BME280;68405;47.190;27.558;2024-03-08T03:15:43;100467.80;;;2.13;53.71
78839;BME280;68405;47.190;27.558;2024-03-08T03:18:12;100465.90;;;2.12;53.68
78839;BME280;68405;47.190;27.558;2024-03-08T03:20:42;100466.41;;;2.12;53.83
78839;BME280;68405;47.190;27.558;2024-03-08T03:23:12;100466.52;;;2.04;54.39
78839;BME280;68405;47.190;27.558;2024-03-08T03:25:42;100467.34;;;2.01;53.31
78839;BME280;68405;47.190;27.558;2024-03-08T03:28:14;100465.13;;;2.03;53.79
78839;BME280;68405;47.190;27.558;2024-03-08T03:30:46;100466.02;;;2.08;53.35
78839;BME280;68405;47.190;27.558;2024-03-08T03:33:15;100459.67;;;2.06;53.62
78839;BME280;68405;47.190;27.558;2024-03-08T03:35:45;100456.34;;;2.14;52.99
78839;BME280;68405;47.190;27.558;2024-03-08T03:38:14;100458.45;;;2.22;53.11
78839;BME280;68405;47.190;27.558;2024-03-08T03:40:43;100459.52;;;2.26;53.10
78839;BME280;68405;47.190;27.558;2024-03-08T03:43:14;100460.76;;;2.29;53.05
78839;BME280;68405;47.190;27.558;2024-03-08T03:45:43;100459.40;;;2.32;53.00
78839;BME280;68405;47.190;27.558;2024-03-08T03:48:12;100459.02;;;2.28;53.72
78839;BME280;68405;47.190;27.558;2024-03-08T03:50:41;100458.98;;;2.24;53.53
78839;BME280;68405;47.190;27.558;2024-03-08T03:53:10;100460.65;;;2.18;53.56
78839;BME280;68405;47.190;27.558;2024-03-08T03:55:41;100462.19;;;2.18;53.41
78839;BME280;68405;47.190;27.558;2024-03-08T03:58:10;100460.44;;;2.14;53.77
78839;BME280;68405;47.190;27.558;2024-03-08T04:00:39;100462.64;;;2.12;53.34
78839;BME280;68405;47.190;27.558;2024-03-08T04:03:09;100462.34;;;2.16;53.10
78839;BME280;68405;47.190;27.558;2024-03-08T04:05:38;100462.68;;;2.15;53.80
78839;BME280;68405;47.190;27.558;2024-03-08T04:08:07;100464.73;;;2.16;53.95
78839;BME280;68405;47.190;27.558;2024-03-08T04:10:37;100463.20;;;2.16;53.14
78839;BME280;68405;47.190;27.558;2024-03-08T04:13:04;100459.79;;;2.19;53.55
78839;BME280;68405;47.190;27.558;2024-03-08T04:15:33;100462.55;;;2.19;53.22
78839;BME280;68405;47.190;27.558;2024-03-08T04:18:02;100460.88;;;2.24;53.18
78839;BME280;68405;47.190;27.558;2024-03-08T04:20:31;100464.67;;;2.27;53.05
78839;BME280;68405;47.190;27.558;2024-03-08T04:23:01;100463.15;;;2.29;53.30
78839;BME280;68405;47.190;27.558;2024-03-08T04:25:30;100463.80;;;2.25;53.65
78839;BME280;68405;47.190;27.558;2024-03-08T04:27:57;100462.56;;;2.21;53.55
78839;BME280;68405;47.190;27.558;2024-03-08T04:30:26;100462.52;;;2.15;53.90
78839;BME280;68405;47.190;27.558;2024-03-08T04:32:56;100460.63;;;2.16;53.39
78839;BME280;68405;47.190;27.558;2024-03-08T04:35:25;100466.09;;;2.14;53.86
78839;BME280;68405;47.190;27.558;2024-03-08T04:37:54;100467.83;;;2.15;53.88
78839;BME280;68405;47.190;27.558;2024-03-08T04:40:25;100467.52;;;2.18;53.34
78839;BME280;68405;47.190;27.558;2024-03-08T04:42:54;100468.25;;;2.25;53.39
78839;BME280;68405;47.190;27.558;2024-03-08T04:45:23;100475.16;;;2.30;53.41
78839;BME280;68405;47.190;27.558;2024-03-08T04:47:53;100472.80;;;2.36;53.48
78839;BME280;68405;47.190;27.558;2024-03-08T04:50:22;100473.17;;;2.37;53.45
78839;BME280;68405;47.190;27.558;2024-03-08T04:52:51;100475.55;;;2.36;53.67
78839;BME280;68405;47.190;27.558;2024-03-08T04:55:20;100476.89;;;2.32;53.47
78839;BME280;68405;47.190;27.558;2024-03-08T04:57:49;100479.34;;;2.37;53.43
78839;BME280;68405;47.190;27.558;2024-03-08T05:00:19;100483.44;;;2.37;53.62
78839;BME280;68405;47.190;27.558;2024-03-08T05:02:48;100482.04;;;2.34;53.40
78839;BME280;68405;47.190;27.558;2024-03-08T05:05:21;100484.42;;;2.32;53.81
78839;BME280;68405;47.190;27.558;2024-03-08T05:07:51;100485.27;;;2.32;53.94
78839;BME280;68405;47.190;27.558;2024-03-08T05:10:19;100487.86;;;2.33;53.75
78839;BME280;68405;47.190;27.558;2024-03-08T05:12:48;100489.56;;;2.31;53.87
78839;BME280;68405;47.190;27.558;2024-03-08T05:15:17;100489.77;;;2.35;53.56
78839;BME280;68405;47.190;27.558;2024-03-08T05:17:48;100492.27;;;2.46;53.64
78839;BME280;68405;47.190;27.558;2024-03-08T05:20:17;100490.75;;;2.50;53.72
78839;BME280;68405;47.190;27.558;2024-03-08T05:22:47;100491.83;;;2.57;53.47
78839;BME280;68405;47.190;27.558;2024-03-08T05:25:17;100497.71;;;2.62;53.36
78839;BME280;68405;47.190;27.558;2024-03-08T05:27:46;100498.27;;;2.67;53.47
78839;BME280;68405;47.190;27.558;2024-03-08T05:30:16;100503.31;;;2.77;53.44
78839;BME280;68405;47.190;27.558;2024-03-08T05:32:45;100501.51;;;2.88;53.32
78839;BME280;68405;47.190;27.558;2024-03-08T05:35:14;100503.10;;;2.96;53.40
78839;BME280;68405;47.190;27.558;2024-03-08T05:37:44;100502.27;;;2.98;53.29
78839;BME280;68405;47.190;27.558;2024-03-08T05:40:13;100505.52;;;2.99;53.30
78839;BME280;68405;47.190;27.558;2024-03-08T05:42:43;100505.91;;;3.08;53.39
78839;BME280;68405;47.190;27.558;2024-03-08T05:45:12;100510.77;;;3.14;53.12
78839;BME280;68405;47.190;27.558;2024-03-08T05:47:43;100512.48;;;3.13;52.81
78839;BME280;68405;47.190;27.558;2024-03-08T05:50:12;100511.61;;;3.14;52.71
78839;BME280;68405;47.190;27.558;2024-03-08T05:52:43;100514.75;;;3.22;53.11
78839;BME280;68405;47.190;27.558;2024-03-08T05:55:12;100514.32;;;3.36;52.94
78839;BME280;68405;47.190;27.558;2024-03-08T05:57:42;100515.23;;;3.45;52.51
78839;BME280;68405;47.190;27.558;2024-03-08T06:00:14;100512.70;;;3.57;52.99
78839;BME280;68405;47.190;27.558;2024-03-08T06:02:43;100513.76;;;3.63;51.84
78839;BME280;68405;47.190;27.558;2024-03-08T06:05:12;100516.84;;;3.61;51.87
78839;BME280;68405;47.190;27.558;2024-03-08T06:07:41;100519.25;;;3.59;51.95
78839;BME280;68405;47.190;27.558;2024-03-08T06:10:11;100520.80;;;3.61;52.09
78839;BME280;68405;47.190;27.558;2024-03-08T06:12:41;100523.02;;;3.60;51.25
78839;BME280;68405;47.190;27.558;2024-03-08T06:15:11;100523.21;;;3.65;51.82
78839;BME280;68405;47.190;27.558;2024-03-08T06:17:42;100522.54;;;3.66;51.21
78839;BME280;68405;47.190;27.558;2024-03-08T06:20:12;100519.27;;;3.66;51.08
78839;BME280;68405;47.190;27.558;2024-03-08T06:22:41;100522.56;;;3.72;51.20
78839;BME280;68405;47.190;27.558;2024-03-08T06:25:11;100522.60;;;3.83;51.49
78839;BME280;68405;47.190;27.558;2024-03-08T06:27:42;100520.23;;;3.97;51.26
78839;BME280;68405;47.190;27.558;2024-03-08T06:30:12;100521.14;;;4.12;50.95
78839;BME280;68405;47.190;27.558;2024-03-08T06:32:41;100521.86;;;4.29;50.78
78839;BME280;68405;47.190;27.558;2024-03-08T06:35:11;100519.63;;;4.36;49.45
78839;BME280;68405;47.190;27.558;2024-03-08T06:37:40;100519.14;;;4.44;49.49
78839;BME280;68405;47.190;27.558;2024-03-08T06:40:12;100520.33;;;4.52;49.55
78839;BME280;68405;47.190;27.558;2024-03-08T06:42:41;100518.63;;;4.65;48.40
78839;BME280;68405;47.190;27.558;2024-03-08T06:45:11;100519.13;;;4.76;49.12
78839;BME280;68405;47.190;27.558;2024-03-08T06:47:40;100513.95;;;4.99;49.41
78839;BME280;68405;47.190;27.558;2024-03-08T06:50:11;100514.95;;;5.15;49.74
78839;BME280;68405;47.190;27.558;2024-03-08T06:52:41;100517.68;;;5.31;48.30
78839;BME280;68405;47.190;27.558;2024-03-08T06:55:12;100516.81;;;5.28;47.34
78839;BME280;68405;47.190;27.558;2024-03-08T06:57:41;100515.13;;;5.21;45.43
78839;BME280;68405;47.190;27.558;2024-03-08T07:00:12;100517.17;;;5.27;47.28
78839;BME280;68405;47.190;27.558;2024-03-08T07:02:46;100514.34;;;5.51;48.28
78839;BME280;68405;47.190;27.558;2024-03-08T07:05:17;100511.45;;;5.84;49.13
78839;BME280;68405;47.190;27.558;2024-03-08T07:07:46;100512.92;;;6.01;47.71
78839;BME280;68405;47.190;27.558;2024-03-08T07:10:16;100514.59;;;6.14;48.49
78839;BME280;68405;47.190;27.558;2024-03-08T07:12:45;100515.80;;;6.15;43.97
78839;BME280;68405;47.190;27.558;2024-03-08T07:15:15;100514.01;;;6.24;45.69
78839;BME280;68405;47.190;27.558;2024-03-08T07:17:44;100513.39;;;6.38;44.24
78839;BME280;68405;47.190;27.558;2024-03-08T07:20:13;100515.45;;;6.64;44.47
78839;BME280;68405;47.190;27.558;2024-03-08T07:22:47;100516.15;;;6.83;45.53
78839;BME280;68405;47.190;27.558;2024-03-08T07:25:16;100515.48;;;7.19;46.90
78839;BME280;68405;47.190;27.558;2024-03-08T07:27:49;100516.36;;;7.48;44.97
78839;BME280;68405;47.190;27.558;2024-03-08T07:30:20;100512.06;;;7.61;43.31
78839;BME280;68405;47.190;27.558;2024-03-08T07:33:07;100513.53;;;7.68;42.09
78839;BME280;68405;47.190;27.558;2024-03-08T07:35:39;100511.52;;;8.04;44.68
78839;BME280;68405;47.190;27.558;2024-03-08T07:38:09;100511.36;;;8.26;43.74
78839;BME280;68405;47.190;27.558;2024-03-08T07:40:40;100505.80;;;8.53;45.18
78839;BME280;68405;47.190;27.558;2024-03-08T07:43:12;100506.10;;;8.87;43.98
78839;BME280;68405;47.190;27.558;2024-03-08T07:45:41;100506.48;;;9.24;43.53
78839;BME280;68405;47.190;27.558;2024-03-08T07:48:10;100506.94;;;9.53;42.62
78839;BME280;68405;47.190;27.558;2024-03-08T07:50:41;100502.54;;;9.47;40.04
78839;BME280;68405;47.190;27.558;2024-03-08T07:53:10;100504.56;;;9.43;42.72
78839;BME280;68405;47.190;27.558;2024-03-08T07:55:39;100502.98;;;9.60;41.96
78839;BME280;68405;47.190;27.558;2024-03-08T07:58:10;100506.46;;;9.77;42.58
78839;BME280;68405;47.190;27.558;2024-03-08T08:00:39;100507.23;;;9.82;41.12
78839;BME280;68405;47.190;27.558;2024-03-08T08:03:11;100506.61;;;10.10;42.04
78839;BME280;68405;47.190;27.558;2024-03-08T08:05:40;100510.80;;;9.85;37.61
78839;BME280;68405;47.190;27.558;2024-03-08T08:08:09;100510.30;;;9.92;39.21
78839;BME280;68405;47.190;27.558;2024-03-08T08:10:39;100507.76;;;10.05;40.63
78839;BME280;68405;47.190;27.558;2024-03-08T08:13:08;100504.25;;;10.15;41.22
78839;BME280;68405;47.190;27.558;2024-03-08T08:15:37;100509.50;;;10.37;40.76
78839;BME280;68405;47.190;27.558;2024-03-08T08:18:06;100507.91;;;10.53;39.05
78839;BME280;68405;47.190;27.558;2024-03-08T08:20:37;100504.61;;;10.53;38.29
78839;BME280;68405;47.190;27.558;2024-03-08T08:23:06;100504.41;;;10.61;35.72
78839;BME280;68405;47.190;27.558;2024-03-08T08:25:36;100503.91;;;10.88;39.99
78839;BME280;68405;47.190;27.558;2024-03-08T08:28:06;100504.69;;;11.25;40.22
78839;BME280;68405;47.190;27.558;2024-03-08T08:30:36;100498.77;;;11.56;39.48
78839;BME280;68405;47.190;27.558;2024-03-08T08:33:06;100498.87;;;11.46;36.86
78839;BME280;68405;47.190;27.558;2024-03-08T08:35:36;100500.99;;;11.45;38.34
78839;BME280;68405;47.190;27.558;2024-03-08T08:38:06;100495.73;;;11.84;37.17
78839;BME280;68405;47.190;27.558;2024-03-08T08:40:35;100499.98;;;12.11;36.26
78839;BME280;68405;47.190;27.558;2024-03-08T08:43:05;100499.95;;;12.39;36.78
78839;BME280;68405;47.190;27.558;2024-03-08T08:45:34;100493.89;;;12.70;34.88
78839;BME280;68405;47.190;27.558;2024-03-08T08:48:03;100491.23;;;12.82;35.68
78839;BME280;68405;47.190;27.558;2024-03-08T08:50:33;100499.89;;;12.35;33.19
78839;BME280;68405;47.190;27.558;2024-03-08T08:53:03;100497.63;;;12.19;34.41
78839;BME280;68405;47.190;27.558;2024-03-08T08:55:32;100492.63;;;12.17;33.37
78839;BME280;68405;47.190;27.558;2024-03-08T08:58:04;100487.02;;;12.19;34.24
78839;BME280;68405;47.190;27.558;2024-03-08T09:00:35;100483.59;;;11.82;32.68
78839;BME280;68405;47.190;27.558;2024-03-08T09:03:05;100482.20;;;11.76;31.43
78839;BME280;68405;47.190;27.558;2024-03-08T09:05:34;100479.83;;;11.73;32.05
78839;BME280;68405;47.190;27.558;2024-03-08T09:08:04;100477.32;;;11.94;33.53
78839;BME280;68405;47.190;27.558;2024-03-08T09:10:33;100471.65;;;12.53;34.47
78839;BME280;68405;47.190;27.558;2024-03-08T09:13:03;100471.14;;;12.84;33.91
78839;BME280;68405;47.190;27.558;2024-03-08T09:15:32;100473.11;;;12.88;33.44
78839;BME280;68405;47.190;27.558;2024-03-08T09:18:01;100473.41;;;12.89;32.05
78839;BME280;68405;47.190;27.558;2024-03-08T09:20:30;100475.53;;;12.67;31.72
78839;BME280;68405;47.190;27.558;2024-03-08T09:23:00;100475.55;;;12.12;30.23
78839;BME280;68405;47.190;27.558;2024-03-08T09:25:29;100476.30;;;12.59;32.96
78839;BME280;68405;47.190;27.558;2024-03-08T09:27:58;100473.86;;;12.86;32.48
78839;BME280;68405;47.190;27.558;2024-03-08T09:30:27;100475.40;;;13.07;31.51
78839;BME280;68405;47.190;27.558;2024-03-08T09:32:56;100474.30;;;13.03;32.73
78839;BME280;68405;47.190;27.558;2024-03-08T09:35:25;100474.71;;;13.01;30.01
78839;BME280;68405;47.190;27.558;2024-03-08T09:37:54;100477.23;;;12.79;31.42
78839;BME280;68405;47.190;27.558;2024-03-08T09:40:23;100474.44;;;12.84;31.80
78839;BME280;68405;47.190;27.558;2024-03-08T09:42:53;100473.63;;;12.72;32.08
78839;BME280;68405;47.190;27.558;2024-03-08T09:45:23;100467.31;;;12.83;32.42
78839;BME280;68405;47.190;27.558;2024-03-08T09:47:53;100468.20;;;12.78;31.75
78839;BME280;68405;47.190;27.558;2024-03-08T09:50:23;100467.26;;;12.32;30.23
78839;BME280;68405;47.190;27.558;2024-03-08T09:52:56;100468.48;;;12.43;31.75
78839;BME280;68405;47.190;27.558;2024-03-08T09:55:26;100465.49;;;12.33;30.22
78839;BME280;68405;47.190;27.558;2024-03-08T09:58:01;100464.65;;;12.74;31.25
78839;BME280;68405;47.190;27.558;2024-03-08T10:01:04;100460.64;;;12.48;30.70
78839;BME280;68405;47.190;27.558;2024-03-08T10:03:34;100461.55;;;12.68;31.98
78839;BME280;68405;47.190;27.558;2024-03-08T10:06:04;100459.92;;;12.90;30.95
78839;BME280;68405;47.190;27.558;2024-03-08T10:08:34;100455.86;;;12.92;30.66
78839;BME280;68405;47.190;27.558;2024-03-08T10:11:03;100454.10;;;13.12;30.60
78839;BME280;68405;47.190;27.558;2024-03-08T10:13:32;100448.55;;;13.41;30.89
78839;BME280;68405;47.190;27.558;2024-03-08T10:16:02;100447.82;;;13.65;30.83
78839;BME280;68405;47.190;27.558;2024-03-08T10:18:33;100445.14;;;13.80;30.20
78839;BME280;68405;47.190;27.558;2024-03-08T10:21:06;100442.14;;;13.95;29.21
78839;BME280;68405;47.190;27.558;2024-03-08T10:23:38;100442.48;;;13.72;30.02
78839;BME280;68405;47.190;27.558;2024-03-08T10:26:12;100439.94;;;14.10;30.29
78839;BME280;68405;47.190;27.558;2024-03-08T10:28:43;100436.21;;;14.29;29.53
78839;BME280;68405;47.190;27.558;2024-03-08T10:31:13;100435.89;;;14.71;28.90
78839;BME280;68405;47.190;27.558;2024-03-08T10:33:43;100430.48;;;15.27;30.23
78839;BME280;68405;47.190;27.558;2024-03-08T10:36:13;100428.11;;;16.01;30.09
78839;BME280;68405;47.190;27.558;2024-03-08T10:38:44;100426.88;;;16.05;27.53
78839;BME280;68405;47.190;27.558;2024-03-08T10:41:15;100423.41;;;15.45;27.44
78839;BME280;68405;47.190;27.558;2024-03-08T10:44:09;100420.09;;;15.71;29.35
78839;BME280;68405;47.190;27.558;2024-03-08T10:46:47;100419.90;;;15.67;27.90
78839;BME280;68405;47.190;27.558;2024-03-08T10:49:29;100418.31;;;14.98;28.27
78839;BME280;68405;47.190;27.558;2024-03-08T10:52:00;100422.45;;;14.37;28.48
78839;BME280;68405;47.190;27.558;2024-03-08T10:54:30;100422.01;;;13.87;29.27
78839;BME280;68405;47.190;27.558;2024-03-08T10:57:00;100421.63;;;13.51;28.73
78839;BME280;68405;47.190;27.558;2024-03-08T10:59:31;100421.00;;;13.35;29.87
78839;BME280;68405;47.190;27.558;2024-03-08T11:02:00;100418.98;;;13.34;30.11
78839;BME280;68405;47.190;27.558;2024-03-08T11:04:30;100415.98;;;13.24;29.57
78839;BME280;68405;47.190;27.558;2024-03-08T11:07:03;100409.93;;;13.32;30.12
78839;BME280;68405;47.190;27.558;2024-03-08T11:09:36;100410.92;;;13.48;30.44
78839;BME280;68405;47.190;27.558;2024-03-08T11:12:23;100409.88;;;13.58;29.90
78839;BME280;68405;47.190;27.558;2024-03-08T11:15:00;100401.83;;;13.49;29.21
78839;BME280;68405;47.190;27.558;2024-03-08T11:17:51;100404.33;;;13.18;29.31
78839;BME280;68405;47.190;27.558;2024-03-08T11:20:24;100405.14;;;13.24;29.93
78839;BME280;68405;47.190;27.558;2024-03-08T11:22:59;100406.65;;;13.32;29.87
78839;BME280;68405;47.190;27.558;2024-03-08T11:25:33;100404.05;;;13.22;30.05
78839;BME280;68405;47.190;27.558;2024-03-08T11:28:17;100404.20;;;13.03;30.38
78839;BME280;68405;47.190;27.558;2024-03-08T11:30:47;100404.71;;;13.08;30.35
78839;BME280;68405;47.190;27.558;2024-03-08T11:33:40;100398.20;;;13.29;29.45
78839;BME280;68405;47.190;27.558;2024-03-08T11:36:12;100396.08;;;13.44;30.25
78839;BME280;68405;47.190;27.558;2024-03-08T11:38:45;100394.10;;;13.73;30.28
78839;BME280;68405;47.190;27.558;2024-03-08T11:41:17;100393.31;;;13.84;29.69
78839;BME280;68405;47.190;27.558;2024-03-08T11:43:48;100390.29;;;13.95;30.07
78839;BME280;68405;47.190;27.558;2024-03-08T11:46:19;100390.43;;;14.09;29.69
78839;BME280;68405;47.190;27.558;2024-03-08T11:48:49;100377.91;;;14.19;29.23
78839;BME280;68405;47.190;27.558;2024-03-08T11:51:19;100386.55;;;13.92;29.18
78839;BME280;68405;47.190;27.558;2024-03-08T11:53:50;100380.05;;;14.40;28.67
78839;BME280;68405;47.190;27.558;2024-03-08T11:56:19;100374.38;;;14.71;28.97
78839;BME280;68405;47.190;27.558;2024-03-08T11:58:55;100373.84;;;14.83;29.20
78839;BME280;68405;47.190;27.558;2024-03-08T12:01:25;100369.77;;;15.23;29.48
78839;BME280;68405;47.190;27.558;2024-03-08T12:03:56;100362.25;;;15.50;28.16
78839;BME280;68405;47.190;27.558;2024-03-08T12:06:27;100365.84;;;15.40;28.17
78839;BME280;68405;47.190;27.558;2024-03-08T12:09:05;100362.80;;;14.87;27.06
78839;BME280;68405;47.190;27.558;2024-03-08T12:11:37;100363.98;;;14.52;27.85
78839;BME280;68405;47.190;27.558;2024-03-08T12:14:07;100362.73;;;14.28;28.05
78839;BME280;68405;47.190;27.558;2024-03-08T12:16:37;100362.08;;;14.39;29.09
78839;BME280;68405;47.190;27.558;2024-03-08T12:19:07;100359.52;;;14.37;27.80
78839;BME280;68405;47.190;27.558;2024-03-08T12:21:37;100358.73;;;13.84;27.65
78839;BME280;68405;47.190;27.558;2024-03-08T12:24:10;100357.27;;;13.91;28.16
78839;BME280;68405;47.190;27.558;2024-03-08T12:26:41;100356.34;;;13.78;28.20
78839;BME280;68405;47.190;27.558;2024-03-08T12:29:17;100352.41;;;13.55;29.02
78839;BME280;68405;47.190;27.558;2024-03-08T12:31:49;100349.89;;;13.28;28.09
78839;BME280;68405;47.190;27.558;2024-03-08T12:34:19;100349.20;;;13.19;28.99
78839;BME280;68405;47.190;27.558;2024-03-08T12:36:49;100345.36;;;13.05;29.15
78839;BME280;68405;47.190;27.558;2024-03-08T12:39:20;100341.94;;;12.69;29.21
78839;BME280;68405;47.190;27.558;2024-03-08T12:41:54;100342.50;;;12.78;29.55
78839;BME280;68405;47.190;27.558;2024-03-08T12:44:25;100344.11;;;12.68;29.62
78839;BME280;68405;47.190;27.558;2024-03-08T12:46:56;100347.15;;;12.65;29.60
78839;BME280;68405;47.190;27.558;2024-03-08T12:49:26;100343.84;;;12.55;29.64
78839;BME280;68405;47.190;27.558;2024-03-08T12:51:56;100343.95;;;12.47;29.72
78839;BME280;68405;47.190;27.558;2024-03-08T12:54:25;100340.16;;;12.31;29.92
78839;BME280;68405;47.190;27.558;2024-03-08T12:56:54;100339.30;;;12.09;30.09
78839;BME280;68405;47.190;27.558;2024-03-08T12:59:23;100331.48;;;11.98;30.37
78839;BME280;68405;47.190;27.558;2024-03-08T13:01:52;100334.92;;;11.60;30.67